createdAt,value
2022-09-05T00:02:41.870Z,24.23
2022-09-05T00:05:18.488Z,24.23
2022-09-05T00:08:12.528Z,24.34
2022-09-05T00:11:42.025Z,24.17
2022-09-05T00:13:53.423Z,24.19
2022-09-05T00:16:30.257Z,24.14
2022-09-05T00:22:51.291Z,24.19
2022-09-05T00:24:33.159Z,24.29
2022-09-05T00:25:41.467Z,24.31
2022-09-05T00:28:42.705Z,24.36
2022-09-05T00:31:55.020Z,24.19
2022-09-05T00:34:47.466Z,24.33
2022-09-05T00:37:42.700Z,24.33
2022-09-05T00:40:21.378Z,24.33
2022-09-05T00:42:53.832Z,24.28
2022-09-05T00:45:43.633Z,24.35
2022-09-05T00:48:21.348Z,24.33
2022-09-05T00:51:00.296Z,24.40
2022-09-05T00:53:39.356Z,24.34
2022-09-05T00:56:37.020Z,24.46
2022-09-05T00:59:58.472Z,24.50
2022-09-05T01:02:40.227Z,24.39
2022-09-05T01:05:38.418Z,24.32
2022-09-05T01:08:29.423Z,24.46
2022-09-05T01:11:01.994Z,24.31
2022-09-05T01:13:54.142Z,24.46
2022-09-05T01:16:31.409Z,24.36
2022-09-05T01:19:16.104Z,24.40
2022-09-05T01:22:04.602Z,24.44
2022-09-05T01:24:53.097Z,24.32
2022-09-05T01:28:06.782Z,24.43
2022-09-05T01:30:37.740Z,24.33
2022-09-05T01:33:19.978Z,24.34
2022-09-05T01:36:03.869Z,24.21
2022-09-05T01:39:13.230Z,24.20
2022-09-05T01:41:57.973Z,24.27
2022-09-05T01:44:41.281Z,24.27
2022-09-05T01:47:29.342Z,24.17
2022-09-05T01:50:17.128Z,24.16
2022-09-05T01:53:26.030Z,24.29
2022-09-05T01:56:24.569Z,24.22
2022-09-05T01:59:10.146Z,24.27
2022-09-05T02:01:45.749Z,24.14
2022-09-05T02:04:54.525Z,24.23
2022-09-05T02:07:31.114Z,24.07
2022-09-05T02:10:25.703Z,24.14
2022-09-05T02:13:29.874Z,24.19
2022-09-05T02:16:23.645Z,24.17
2022-09-05T02:19:15.000Z,24.14
2022-09-05T02:22:07.705Z,24.04
2022-09-05T02:24:36.736Z,23.89
2022-09-05T02:28:03.595Z,24.02
2022-09-05T02:30:17.003Z,23.91
2022-09-05T02:33:09.303Z,23.94
2022-09-05T02:35:35.779Z,23.76
2022-09-05T02:40:29.849Z,23.78
2022-09-05T02:45:09.270Z,23.70
2022-09-05T02:45:21.829Z,23.76
2022-09-05T02:47:25.707Z,23.81
2022-09-05T02:53:15.914Z,23.82
2022-09-05T02:57:29.970Z,23.63
2022-09-05T02:57:40.446Z,23.77
2022-09-05T02:59:50.409Z,23.75
2022-09-05T03:02:47.734Z,23.70
2022-09-05T03:05:52.179Z,23.75
2022-09-05T03:08:18.628Z,23.58
2022-09-05T03:11:08.689Z,23.94
2022-09-05T03:14:21.171Z,23.75
2022-09-05T03:17:03.074Z,23.60
2022-09-05T03:20:06.843Z,23.69
2022-09-05T03:23:10.825Z,23.67
2022-09-05T03:25:52.332Z,23.59
2022-09-05T03:29:11.520Z,23.69
2022-09-05T03:31:50.084Z,23.48
2022-09-05T03:34:22.688Z,23.52
2022-09-05T03:37:26.835Z,23.59
2022-09-05T03:40:18.846Z,23.53
2022-09-05T03:43:37.904Z,23.60
2022-09-05T03:46:26.047Z,23.57
2022-09-05T03:49:27.218Z,23.55
2022-09-05T03:57:08.398Z,23.49
2022-09-05T03:57:11.363Z,23.39
2022-09-05T03:58:41.995Z,23.53
2022-09-05T04:04:31.779Z,23.50
2022-09-05T04:08:08.621Z,23.51
2022-09-05T04:08:34.269Z,23.50
2022-09-05T04:10:57.580Z,23.78
2022-09-05T04:13:29.493Z,23.46
2022-09-05T04:16:15.845Z,23.52
2022-09-05T04:19:01.421Z,23.52
2022-09-05T04:21:32.550Z,23.37
2022-09-05T04:24:14.382Z,23.41
2022-09-05T04:26:53.446Z,23.33
2022-09-05T04:29:49.376Z,23.46
2022-09-05T04:32:36.561Z,23.41
2022-09-05T04:35:21.970Z,23.35
2022-09-05T04:38:16.461Z,23.44
2022-09-05T04:40:48.745Z,23.32
2022-09-05T04:43:18.310Z,23.31
2022-09-05T04:46:01.827Z,23.43
2022-09-05T04:48:36.549Z,23.39
2022-09-05T04:51:08.103Z,23.36
2022-09-05T04:53:59.540Z,23.44
2022-09-05T04:56:33.050Z,23.38
2022-09-05T05:01:37.919Z,23.39
2022-09-05T05:06:00.673Z,23.38
2022-09-05T05:06:19.100Z,23.33
2022-09-05T05:07:49.959Z,23.39
2022-09-05T05:11:06.179Z,23.36
2022-09-05T05:18:01.745Z,23.33
2022-09-05T05:18:12.356Z,23.37
2022-09-05T05:19:27.810Z,23.25
2022-09-05T05:21:58.178Z,23.26
2022-09-05T05:24:31.071Z,23.26
2022-09-05T05:27:07.470Z,23.28
2022-09-05T05:29:56.782Z,23.21
2022-09-05T05:32:44.979Z,23.18
2022-09-05T05:35:18.711Z,23.18
2022-09-05T05:37:47.575Z,23.13
2022-09-05T05:40:21.807Z,23.15
2022-09-05T05:42:48.783Z,23.07
2022-09-05T05:45:28.162Z,23.12
2022-09-05T05:48:03.774Z,23.00
2022-09-05T05:50:42.604Z,23.02
2022-09-05T05:53:28.960Z,22.96
2022-09-05T05:56:16.583Z,22.92
2022-09-05T05:59:13.919Z,22.84
2022-09-05T06:01:55.848Z,22.73
2022-09-05T06:04:47.045Z,22.83
2022-09-05T06:10:02.420Z,22.81
2022-09-05T06:15:03.669Z,22.68
2022-09-05T06:15:05.773Z,22.75
2022-09-05T06:17:55.447Z,22.74
2022-09-05T06:22:05.953Z,22.71
2022-09-05T06:23:50.643Z,22.66
2022-09-05T06:26:32.156Z,22.59
2022-09-05T06:29:04.777Z,22.60
2022-09-05T06:31:57.539Z,22.60
2022-09-05T06:35:01.685Z,22.70
2022-09-05T06:38:09.561Z,22.79
2022-09-05T06:40:50.954Z,22.73
2022-09-05T06:43:35.034Z,22.72
2022-09-05T06:46:32.206Z,22.75
2022-09-05T06:49:31.321Z,22.73
2022-09-05T06:52:28.658Z,22.81
2022-09-05T06:55:08.902Z,22.76
2022-09-05T06:57:53.583Z,22.86
2022-09-05T07:00:23.788Z,22.80
2022-09-05T07:03:20.540Z,22.89
2022-09-05T07:06:08.297Z,22.99
2022-09-05T07:09:08.479Z,22.96
2022-09-05T07:11:43.988Z,23.00
2022-09-05T07:14:30.448Z,23.07
2022-09-05T07:17:16.996Z,23.16
2022-09-05T07:19:56.126Z,23.18
2022-09-05T07:22:54.637Z,23.22
2022-09-05T07:25:31.561Z,23.23
2022-09-05T07:28:28.950Z,23.32
2022-09-05T07:31:04.175Z,23.35
2022-09-05T07:33:31.957Z,23.32
2022-09-05T07:36:08.859Z,23.45
2022-09-05T07:38:45.587Z,23.74
2022-09-05T07:41:26.560Z,23.53
2022-09-05T07:43:59.192Z,23.55
2022-09-05T07:46:31.388Z,23.56
2022-09-05T07:49:03.168Z,23.58
2022-09-05T07:56:47.397Z,23.65
2022-09-05T07:56:59.810Z,23.72
2022-09-05T07:57:50.970Z,23.89
2022-09-05T08:00:28.992Z,23.84
2022-09-05T08:03:01.166Z,23.93
2022-09-05T08:05:36.024Z,23.96
2022-09-05T08:08:09.282Z,24.08
2022-09-05T08:11:25.007Z,24.22
2022-09-05T08:13:48.572Z,24.23
2022-09-05T08:16:22.665Z,24.30
2022-09-05T08:18:56.598Z,24.33
2022-09-05T08:21:40.030Z,24.42
2022-09-05T08:24:41.554Z,24.50
2022-09-05T08:27:17.045Z,24.51
2022-09-05T08:30:26.920Z,24.60
2022-09-05T08:32:57.528Z,24.65
2022-09-05T08:36:01.275Z,24.70
2022-09-05T08:38:38.767Z,24.74
2022-09-05T08:41:16.404Z,24.84
2022-09-05T08:46:35.891Z,24.92
2022-09-05T08:46:50.080Z,24.98
2022-09-05T08:49:54.062Z,25.09
2022-09-05T08:52:33.986Z,25.09
2022-09-05T08:55:18.594Z,25.15
2022-09-05T08:58:06.960Z,25.26
2022-09-05T09:00:42.295Z,25.22
2022-09-05T09:03:22.558Z,25.35
2022-09-05T09:06:14.216Z,25.45
2022-09-05T09:09:15.772Z,25.66
2022-09-05T09:11:53.214Z,25.73
2022-09-05T09:14:31.544Z,25.82
2022-09-05T09:17:02.338Z,25.88
2022-09-05T09:19:46.482Z,26.07
2022-09-05T09:22:33.543Z,26.14
2022-09-05T09:25:33.148Z,26.17
2022-09-05T09:28:47.246Z,26.30
2022-09-05T09:31:22.188Z,26.50
2022-09-05T09:34:27.123Z,26.63
2022-09-05T09:37:51.697Z,26.72
2022-09-05T09:40:27.178Z,26.80
2022-09-05T09:43:07.258Z,26.85
2022-09-05T09:45:45.939Z,27.05
2022-09-05T09:48:35.183Z,27.26
2022-09-05T09:51:26.987Z,27.39
2022-09-05T09:54:07.265Z,27.56
2022-09-05T09:56:55.427Z,27.86
2022-09-05T09:59:54.300Z,28.08
2022-09-05T10:05:24.042Z,28.40
2022-09-05T10:10:49.403Z,28.75
2022-09-05T10:10:49.406Z,29.07
2022-09-05T10:12:40.209Z,29.47
2022-09-05T10:15:32.290Z,29.74
2022-09-05T10:18:27.004Z,30.05
2022-09-05T10:21:28.549Z,30.27
2022-09-05T10:24:26.318Z,30.44
2022-09-05T10:27:19.212Z,30.57
2022-09-05T10:30:03.402Z,30.59
2022-09-05T10:35:08.137Z,30.67
2022-09-05T10:35:40.663Z,30.63
2022-09-05T10:38:10.948Z,30.62
2022-09-05T10:41:20.005Z,30.61
2022-09-05T10:43:33.285Z,30.58
2022-09-05T10:46:39.800Z,30.60
2022-09-05T10:49:09.147Z,30.57
2022-09-05T10:51:42.299Z,30.60
2022-09-05T10:54:41.257Z,30.65
2022-09-05T10:57:17.236Z,30.78
2022-09-05T11:02:23.800Z,30.96
2022-09-05T11:02:47.431Z,31.09
2022-09-05T11:05:17.877Z,31.21
2022-09-05T11:08:11.620Z,31.40
2022-09-05T11:10:56.822Z,31.55
2022-09-05T11:13:46.458Z,31.72
2022-09-05T11:16:28.448Z,31.80
2022-09-05T11:19:03.724Z,31.79
2022-09-05T11:21:33.163Z,31.80
2022-09-05T11:24:42.051Z,31.99
2022-09-05T11:27:41.090Z,32.03
2022-09-05T11:30:28.414Z,31.98
2022-09-05T11:39:40.999Z,32.04
2022-09-05T11:39:54.633Z,32.07
2022-09-05T11:40:07.644Z,32.07
2022-09-05T11:42:06.237Z,32.08
2022-09-05T11:44:56.973Z,32.24
2022-09-05T11:47:57.264Z,32.37
2022-09-05T11:50:41.925Z,32.47
2022-09-05T11:53:37.572Z,32.54
2022-09-05T11:56:25.488Z,32.55
2022-09-05T11:58:57.732Z,32.57
2022-09-05T12:01:44.321Z,32.67
2022-09-05T12:05:48.923Z,32.77
2022-09-05T12:08:21.321Z,32.95
2022-09-05T12:11:17.810Z,33.09
2022-09-05T12:14:21.054Z,33.20
2022-09-05T12:17:10.024Z,33.36
2022-09-05T12:19:44.689Z,33.49
2022-09-05T12:22:33.228Z,33.70
2022-09-05T12:27:37.106Z,33.89
2022-09-05T12:29:25.908Z,34.00
2022-09-05T12:32:44.545Z,34.22
2022-09-05T12:40:43.206Z,34.43
2022-09-05T12:41:31.952Z,34.57
2022-09-05T12:42:08.587Z,34.31
2022-09-05T12:42:48.341Z,34.63
2022-09-05T12:45:47.710Z,34.79
2022-09-05T12:48:38.698Z,34.77
2022-09-05T12:51:47.083Z,34.86
2022-09-05T12:54:33.505Z,34.83
2022-09-05T12:59:40.184Z,34.92
2022-09-05T13:03:05.122Z,34.98
2022-09-05T13:03:29.244Z,35.11
2022-09-05T13:05:54.410Z,35.22
2022-09-05T13:08:24.701Z,35.24
2022-09-05T13:14:50.040Z,35.35
2022-09-05T13:14:56.696Z,35.39
2022-09-05T13:16:46.236Z,35.39
2022-09-05T13:19:25.041Z,35.38
2022-09-05T13:21:55.645Z,35.26
2022-09-05T13:24:32.365Z,35.25
2022-09-05T13:27:08.697Z,35.23
2022-09-05T13:32:58.817Z,35.24
2022-09-05T13:38:08.371Z,35.27
2022-09-05T13:38:19.618Z,35.27
2022-09-05T13:39:03.017Z,35.25
2022-09-05T13:41:37.220Z,35.26
2022-09-05T13:44:25.659Z,35.27
2022-09-05T13:47:16.376Z,35.26
2022-09-05T13:50:08.794Z,35.26
2022-09-05T13:53:02.333Z,35.34
2022-09-05T13:55:44.249Z,35.29
2022-09-05T13:58:45.442Z,35.34
2022-09-05T14:02:25.942Z,35.35
2022-09-05T14:05:17.777Z,35.37
2022-09-05T14:07:51.840Z,35.33
2022-09-05T14:10:39.515Z,35.40
2022-09-05T14:13:15.221Z,35.33
2022-09-05T14:15:52.058Z,35.25
2022-09-05T14:18:30.275Z,35.31
2022-09-05T14:21:17.398Z,35.38
2022-09-05T14:23:54.037Z,35.28
2022-09-05T14:26:29.214Z,35.24
2022-09-05T14:29:15.680Z,35.26
2022-09-05T14:37:34.411Z,35.26
2022-09-05T14:37:53.023Z,35.37
2022-09-05T14:38:16.058Z,35.34
2022-09-05T14:41:20.707Z,35.38
2022-09-05T14:44:19.439Z,35.37
2022-09-05T14:47:08.536Z,35.36
2022-09-05T14:49:52.448Z,35.33
2022-09-05T14:52:24.840Z,35.20
2022-09-05T15:02:38.977Z,35.01
2022-09-05T15:02:49.860Z,34.96
2022-09-05T15:06:33.082Z,34.67
2022-09-05T15:11:25.310Z,34.67
2022-09-05T15:12:27.883Z,34.60
2022-09-05T15:14:37.084Z,34.59
2022-09-05T15:17:05.943Z,34.57
2022-09-05T15:20:05.780Z,34.68
2022-09-05T15:22:37.254Z,34.57
2022-09-05T15:25:24.161Z,34.68
2022-09-05T15:27:51.267Z,34.46
2022-09-05T15:30:35.553Z,34.51
2022-09-05T15:33:25.441Z,34.56
2022-09-05T15:35:52.671Z,34.34
2022-09-05T15:38:23.923Z,34.33
2022-09-05T15:41:25.733Z,34.38
2022-09-05T15:44:09.881Z,34.26
2022-09-05T15:46:59.700Z,34.17
2022-09-05T15:49:35.308Z,34.04
2022-09-05T15:52:07.934Z,33.92
2022-09-05T15:54:39.441Z,33.79
2022-09-05T15:57:17.633Z,33.70
2022-09-05T15:59:48.926Z,33.57
2022-09-05T16:02:25.864Z,33.56
2022-09-05T16:10:34.677Z,33.51
2022-09-05T16:10:39.977Z,33.28
2022-09-05T16:11:18.684Z,33.11
2022-09-05T16:13:53.419Z,33.06
2022-09-05T16:23:16.742Z,32.88
2022-09-05T16:23:20.434Z,32.83
2022-09-05T16:23:28.979Z,32.81
2022-09-05T16:25:24.082Z,32.66
2022-09-05T16:27:51.029Z,32.48
2022-09-05T16:30:35.589Z,32.49
2022-09-05T16:33:17.562Z,32.33
2022-09-05T16:35:57.372Z,32.32
2022-09-05T16:38:48.658Z,32.19
2022-09-05T16:41:41.226Z,32.11
2022-09-05T16:44:40.153Z,32.16
2022-09-05T16:47:23.321Z,31.90
2022-09-05T16:49:54.523Z,31.77
2022-09-05T16:52:35.763Z,31.74
2022-09-05T16:55:18.397Z,31.71
2022-09-05T16:58:14.533Z,31.68
2022-09-05T17:00:50.609Z,31.53
2022-09-05T17:03:32.458Z,31.44
2022-09-05T17:06:26.194Z,31.48
2022-09-05T17:09:12.269Z,31.20
2022-09-05T17:11:45.853Z,31.64
2022-09-05T17:14:33.624Z,31.23
2022-09-05T17:17:20.149Z,31.07
2022-09-05T17:20:07.205Z,30.97
2022-09-05T17:28:43.091Z,30.95
2022-09-05T17:29:30.407Z,30.91
2022-09-05T17:29:30.888Z,30.93
2022-09-05T17:31:59.790Z,30.86
2022-09-05T17:35:17.779Z,30.78
2022-09-05T17:38:22.211Z,30.74
2022-09-05T17:41:23.864Z,30.58
2022-09-05T17:44:05.812Z,30.36
2022-09-05T17:46:35.201Z,30.17
2022-09-05T17:49:19.528Z,30.12
2022-09-05T17:52:06.596Z,30.12
2022-09-05T17:54:33.698Z,29.86
2022-09-05T17:57:28.537Z,29.92
2022-09-05T17:59:56.520Z,29.60
2022-09-05T18:02:24.017Z,29.48
2022-09-05T18:04:52.470Z,29.38
2022-09-05T18:07:35.242Z,29.39
2022-09-05T18:10:12.793Z,29.19
2022-09-05T18:15:36.135Z,28.99
2022-09-05T18:18:05.908Z,28.93
2022-09-05T18:20:47.325Z,28.91
2022-09-05T18:23:39.097Z,28.80
2022-09-05T18:26:24.490Z,28.75
2022-09-05T18:29:57.254Z,28.80
2022-09-05T18:32:11.638Z,28.51
2022-09-05T18:34:38.330Z,28.41
2022-09-05T18:37:35.965Z,28.52
2022-09-05T18:40:08.645Z,28.36
2022-09-05T18:42:52.618Z,28.21
2022-09-05T18:45:28.440Z,28.16
2022-09-05T18:48:02.861Z,28.09
2022-09-05T18:50:34.244Z,28.03
2022-09-05T18:53:10.460Z,27.98
2022-09-05T18:56:10.185Z,28.01
2022-09-05T18:59:09.571Z,28.01
2022-09-05T19:01:48.798Z,27.87
2022-09-05T19:04:40.904Z,27.82
2022-09-05T19:07:22.394Z,27.78
2022-09-05T19:09:59.125Z,27.73
2022-09-05T19:12:33.544Z,27.57
2022-09-05T19:15:18.090Z,27.61
2022-09-05T19:18:22.814Z,27.58
2022-09-05T19:21:17.822Z,27.66
2022-09-05T19:23:55.535Z,27.54
2022-09-05T19:26:23.503Z,27.41
2022-09-05T19:32:59.820Z,27.38
2022-09-05T19:37:05.140Z,27.32
2022-09-05T19:37:08.360Z,27.27
2022-09-05T19:37:26.124Z,27.20
2022-09-05T19:46:50.694Z,27.21
2022-09-05T19:47:27.259Z,27.11
2022-09-05T19:47:35.724Z,27.06
2022-09-05T19:50:54.182Z,27.03
2022-09-05T19:53:21.242Z,26.93
2022-09-05T19:55:48.405Z,26.89
2022-09-05T19:58:21.261Z,26.95
2022-09-05T20:01:01.266Z,26.83
2022-09-05T20:03:35.500Z,26.82
2022-09-05T20:06:32.186Z,26.88
2022-09-05T20:09:21.434Z,26.88
2022-09-05T20:11:49.714Z,26.72
2022-09-05T20:14:30.384Z,26.75
2022-09-05T20:17:01.443Z,26.68
2022-09-05T20:19:29.910Z,26.65
2022-09-05T20:22:46.701Z,26.65
2022-09-05T20:24:52.938Z,26.57
2022-09-05T20:27:27.192Z,26.53
2022-09-05T20:30:02.520Z,26.59
2022-09-05T20:32:40.511Z,26.55
2022-09-05T20:38:09.079Z,26.45
2022-09-05T20:43:15.055Z,26.40
2022-09-05T20:43:23.232Z,26.47
2022-09-05T20:43:52.760Z,26.39
2022-09-05T20:49:43.522Z,26.39
2022-09-05T20:54:20.747Z,26.31
2022-09-05T20:54:28.653Z,26.40
2022-09-05T20:55:42.061Z,26.21
2022-09-05T20:58:15.251Z,26.24
2022-09-05T21:01:21.760Z,26.20
2022-09-05T21:03:45.534Z,26.15
2022-09-05T21:06:36.473Z,26.28
2022-09-05T21:09:23.839Z,26.21
2022-09-05T21:11:52.760Z,26.05
2022-09-05T21:14:21.657Z,26.05
2022-09-05T21:16:57.508Z,26.03
2022-09-05T21:19:31.445Z,26.08
2022-09-05T21:22:25.008Z,26.17
2022-09-05T21:25:15.349Z,26.14
2022-09-05T21:27:54.196Z,25.96
2022-09-05T21:30:30.808Z,26.00
2022-09-05T21:33:18.529Z,26.05
2022-09-05T21:35:48.871Z,25.92
2022-09-05T21:38:32.395Z,25.88
2022-09-05T21:41:03.649Z,25.94
2022-09-05T21:47:44.820Z,25.85
2022-09-05T21:47:48.112Z,25.84
2022-09-05T21:49:07.748Z,25.81
2022-09-05T21:51:34.925Z,25.78
2022-09-05T21:57:16.875Z,25.83
2022-09-05T21:59:29.385Z,25.75
2022-09-05T21:59:55.559Z,25.71
2022-09-05T22:02:23.714Z,25.68
2022-09-05T22:05:03.116Z,25.65
2022-09-05T22:07:34.532Z,25.64
2022-09-05T22:10:06.231Z,25.68
2022-09-05T22:12:38.803Z,25.58
2022-09-05T22:15:27.168Z,25.58
2022-09-05T22:18:07.677Z,25.56
2022-09-05T22:20:44.826Z,25.58
2022-09-05T22:23:11.923Z,25.54
2022-09-05T22:25:39.307Z,25.54
2022-09-05T22:28:12.791Z,25.57
2022-09-05T22:30:39.763Z,25.55
2022-09-05T22:33:07.341Z,25.56
2022-09-05T22:35:35.784Z,25.58
2022-09-05T22:38:10.881Z,25.58
2022-09-05T22:40:39.677Z,25.62
2022-09-05T22:44:59.283Z,25.66
2022-09-05T22:47:29.716Z,25.66
2022-09-05T22:49:56.683Z,25.62
2022-09-05T22:52:23.226Z,25.62
2022-09-05T22:54:49.746Z,25.61
2022-09-05T22:57:16.246Z,25.59
2022-09-05T22:59:42.749Z,25.59
2022-09-05T23:02:09.238Z,25.58
2022-09-05T23:04:35.808Z,25.57
2022-09-05T23:07:03.064Z,25.54
2022-09-05T23:09:30.283Z,25.53
2022-09-05T23:11:56.758Z,25.50
2022-09-05T23:14:23.290Z,25.48
2022-09-05T23:16:49.858Z,25.45
2022-09-05T23:19:16.398Z,25.43
2022-09-05T23:21:42.942Z,25.38
2022-09-05T23:24:09.474Z,25.35
2022-09-05T23:26:35.970Z,25.33
2022-09-05T23:29:02.570Z,25.29
2022-09-05T23:31:29.174Z,25.28
2022-09-05T23:33:58.053Z,25.22
2022-09-05T23:36:24.627Z,25.18
2022-09-05T23:38:51.264Z,25.16
2022-09-05T23:41:17.832Z,25.13
2022-09-05T23:43:44.379Z,25.10
2022-09-05T23:46:11.389Z,25.06
2022-09-05T23:48:38.067Z,25.03
2022-09-05T23:51:09.891Z,25.06
2022-09-05T23:53:37.137Z,24.96
2022-09-05T23:56:06.764Z,24.92
2022-09-05T23:58:34.459Z,24.88
